CZVL

Edmonton / Villeneuve Airport

Edmonton, Alberta, Canada
METAR CZVL 201438Z AUTO 10003KT 070V130 9SM RA VCTS BKN100 BKN120 OVC160 15/14 A2990 RMK LTNG DIST W NW SLP125 DENSITY ALT 2800FT
Observed Flight Rules
Jul-20 @ 14:38 UTC (8 minutes ago) Visual Flight Rules
Wind Visibility Clouds Conditions
100° at 3 knots 9 miles
  • Broken at 10,000' AGL
  • Broken at 12,000' AGL
  • Overcast at 16,000' AGL
  • Rain
  • Area Thunderstorm
Temperatures Readings
Current 15°C / 59°F
Dewpoint 14°C / 57°F
Humidity 94%
Altimeter 29.9" Hg
Pressure 1012.5 hPa
Elevation 686
METAR CZVL 201438Z AUTO 10003KT 070V130 9SM RA VCTS BKN100 BKN120 OVC160 15/14 A2990 RMK LTNG DIST W NW SLP125 DENSITY ALT 2800FT
Observed Flight Rules
Jul-20 @ 14:38 UTC
(8 minutes ago)
VFR
Wind Visibility
100° at 3 knots 9 miles
Clouds
  • Broken at 10,000' AGL
  • Broken at 12,000' AGL
  • Overcast at 16,000' AGL
Conditions
  • Rain
  • Area Thunderstorm
Temperature Dewpoint
15°C / 59°F 14°C / 57°F
Humidity Altimeter Pressure
94% 29.9" Hg 1012.5 hPa